createdAt,value
2018-11-06T00:01:41.756Z,97863.75
2018-11-06T00:04:09.018Z,97863.75
2018-11-06T00:06:36.288Z,97857.70
2018-11-06T00:09:04.343Z,97863.79
2018-11-06T00:11:38.202Z,97866.41
2018-11-06T00:14:05.492Z,97860.77
2018-11-06T00:16:32.716Z,97859.89
2018-11-06T00:18:59.999Z,97855.88
2018-11-06T00:21:27.240Z,97854.11
2018-11-06T00:23:55.121Z,97855.41
2018-11-06T00:26:22.363Z,97851.98
2018-11-06T00:28:49.656Z,97842.32
2018-11-06T00:31:16.917Z,97851.27
2018-11-06T00:33:44.203Z,97847.14
2018-11-06T00:36:11.471Z,97841.81
2018-11-06T00:38:38.729Z,97845.23
2018-11-06T00:41:05.998Z,97844.21
2018-11-06T00:43:33.261Z,97849.48
2018-11-06T00:46:00.508Z,97855.58
2018-11-06T00:48:27.767Z,97855.69
2018-11-06T00:50:54.986Z,97860.16
2018-11-06T00:53:22.275Z,97865.16
2018-11-06T00:55:49.498Z,97868.83
2018-11-06T00:58:16.767Z,97872.51
2018-11-06T01:00:43.994Z,97868.33
2018-11-06T01:03:11.210Z,97871.83
2018-11-06T01:05:38.523Z,97881.42
2018-11-06T01:08:05.782Z,97882.34
2018-11-06T01:10:33.072Z,97872.83
2018-11-06T01:13:00.368Z,97877.25
2018-11-06T01:15:27.655Z,97875.19
2018-11-06T01:17:56.917Z,97865.72
2018-11-06T01:23:14.647Z,97865.80
2018-11-06T01:25:41.930Z,97860.14
2018-11-06T01:28:09.144Z,97855.81
2018-11-06T01:30:36.405Z,97853.63
2018-11-06T01:33:03.819Z,97848.80
2018-11-06T01:35:31.091Z,97852.27
2018-11-06T01:37:58.339Z,97854.00
2018-11-06T01:40:25.636Z,97857.95
2018-11-06T01:42:52.869Z,97855.79
2018-11-06T01:45:20.159Z,97854.94
2018-11-06T01:47:47.409Z,97853.25
2018-11-06T01:50:16.890Z,97856.66
2018-11-06T01:52:45.059Z,97859.30
2018-11-06T01:55:12.345Z,97853.54
2018-11-06T01:57:39.689Z,97849.81
2018-11-06T02:00:09.152Z,97850.89
2018-11-06T02:02:36.412Z,97850.20
2018-11-06T02:05:03.743Z,97856.45
2018-11-06T02:07:31.069Z,97846.22
2018-11-06T02:09:58.363Z,97846.48
2018-11-06T02:12:25.640Z,97848.20
2018-11-06T02:14:52.904Z,97842.88
2018-11-06T02:17:20.219Z,97840.84
2018-11-06T02:19:47.482Z,97839.16
2018-11-06T02:22:14.747Z,97847.31
2018-11-06T02:24:42.015Z,97852.53
2018-11-06T02:27:09.252Z,97857.85
2018-11-06T02:29:36.505Z,97859.24
2018-11-06T02:32:03.877Z,97856.13
2018-11-06T02:34:31.157Z,97854.47
2018-11-06T02:36:58.469Z,97854.30
2018-11-06T02:39:25.742Z,97853.94
2018-11-06T02:41:53.019Z,97860.23
2018-11-06T02:44:20.243Z,97860.89
2018-11-06T02:46:47.520Z,97853.52
2018-11-06T02:49:14.780Z,97865.05
2018-11-06T02:51:42.040Z,97859.05
2018-11-06T02:54:09.263Z,97856.28
2018-11-06T02:56:36.579Z,97858.63
2018-11-06T02:59:03.828Z,97854.33
2018-11-06T03:01:31.210Z,97863.28
2018-11-06T03:03:58.450Z,97866.90
2018-11-06T03:06:25.687Z,97872.41
2018-11-06T03:08:52.925Z,97869.94
2018-11-06T03:11:20.228Z,97868.48
2018-11-06T03:13:47.500Z,97872.27
2018-11-06T03:16:14.777Z,97872.45
2018-11-06T03:18:42.050Z,97874.32
2018-11-06T03:21:09.315Z,97884.36
2018-11-06T03:23:36.599Z,97884.91
2018-11-06T03:26:03.932Z,97885.44
2018-11-06T03:28:31.179Z,97881.19
2018-11-06T03:30:58.462Z,97876.14
2018-11-06T03:33:25.704Z,97886.16
2018-11-06T03:35:53.007Z,97876.70
2018-11-06T03:38:20.412Z,97883.72
2018-11-06T03:40:47.673Z,97889.02
2018-11-06T03:43:14.934Z,97884.30
2018-11-06T03:45:42.207Z,97879.97
2018-11-06T03:48:09.467Z,97879.56
2018-11-06T03:50:36.714Z,97884.77
2018-11-06T03:53:04.338Z,97882.68
2018-11-06T03:55:31.608Z,97880.08
2018-11-06T03:57:58.847Z,97888.34
2018-11-06T04:00:26.116Z,97886.24
2018-11-06T04:02:53.363Z,97888.44
2018-11-06T04:05:20.642Z,97891.08
2018-11-06T04:07:48.057Z,97883.37
2018-11-06T04:10:15.308Z,97890.30
2018-11-06T04:12:42.763Z,97895.98
2018-11-06T04:15:11.533Z,97902.95
2018-11-06T04:17:40.512Z,97907.73
2018-11-06T04:20:09.452Z,97908.64
2018-11-06T04:22:38.253Z,97904.77
2018-11-06T04:25:05.986Z,97902.58
2018-11-06T04:27:33.265Z,97900.84
2018-11-06T04:30:00.473Z,97908.15
2018-11-06T04:32:27.751Z,97915.95
2018-11-06T04:34:54.999Z,97919.39
2018-11-06T04:37:22.318Z,97920.67
2018-11-06T04:39:49.558Z,97921.58
2018-11-06T04:42:16.801Z,97923.73
2018-11-06T04:44:44.014Z,97916.39
2018-11-06T04:47:11.258Z,97920.73
2018-11-06T04:49:38.525Z,97914.65
2018-11-06T04:52:05.892Z,97912.05
2018-11-06T04:54:33.120Z,97914.59
2018-11-06T04:57:00.402Z,97916.70
2018-11-06T04:59:27.635Z,97917.09
2018-11-06T05:01:54.927Z,97918.77
2018-11-06T05:04:22.178Z,97910.95
2018-11-06T05:06:49.554Z,97914.40
2018-11-06T05:09:16.784Z,97913.52
2018-11-06T05:11:44.052Z,97913.55
2018-11-06T05:14:11.339Z,97909.64
2018-11-06T05:16:38.574Z,97913.55
2018-11-06T05:19:06.435Z,97905.31
2018-11-06T05:21:33.701Z,97906.56
2018-11-06T05:24:01.887Z,97916.48
2018-11-06T05:26:29.175Z,97913.06
2018-11-06T05:28:56.429Z,97913.89
2018-11-06T05:31:23.646Z,97909.92
2018-11-06T05:33:50.934Z,97909.88
2018-11-06T05:36:18.183Z,97909.00
2018-11-06T05:38:45.449Z,97911.27
2018-11-06T05:41:12.699Z,97913.91
2018-11-06T05:43:39.985Z,97912.23
2018-11-06T05:46:07.288Z,97923.49
2018-11-06T05:48:34.567Z,97919.59
2018-11-06T05:51:01.900Z,97923.52
2018-11-06T05:53:29.213Z,97926.98
2018-11-06T05:55:56.491Z,97929.60
2018-11-06T05:58:24.744Z,97939.20
2018-11-06T06:00:52.049Z,97944.42
2018-11-06T06:03:19.409Z,97937.95
2018-11-06T06:05:46.767Z,97941.87
2018-11-06T06:08:14.190Z,97950.11
2018-11-06T06:10:41.550Z,97949.66
2018-11-06T06:13:08.964Z,97953.56
2018-11-06T06:15:37.684Z,97955.31
2018-11-06T06:18:05.566Z,97953.56
2018-11-06T06:20:33.057Z,97954.41
2018-11-06T06:23:01.386Z,97951.81
2018-11-06T06:28:37.012Z,97952.17
2018-11-06T06:31:04.840Z,97951.59
2018-11-06T06:33:32.471Z,97957.11
2018-11-06T06:36:02.118Z,97954.89
2018-11-06T06:38:29.572Z,97953.19
2018-11-06T06:40:57.268Z,97962.70
2018-11-06T06:43:25.166Z,97970.97
2018-11-06T06:45:52.544Z,97966.21
2018-11-06T06:48:20.413Z,97971.41
2018-11-06T06:50:47.876Z,97974.02
2018-11-06T06:53:15.251Z,97982.67
2018-11-06T06:55:42.584Z,97992.23
2018-11-06T06:58:10.012Z,97993.57
2018-11-06T07:00:37.878Z,97993.59
2018-11-06T07:03:05.292Z,97986.64
2018-11-06T07:05:32.680Z,97999.23
2018-11-06T07:08:00.071Z,97994.91
2018-11-06T07:10:27.400Z,97991.89
2018-11-06T07:12:54.891Z,97995.77
2018-11-06T07:15:22.619Z,97993.62
2018-11-06T07:17:50.880Z,97999.27
2018-11-06T07:20:19.554Z,97991.05
2018-11-06T07:22:47.383Z,97995.34
2018-11-06T07:25:15.129Z,97994.86
2018-11-06T07:27:44.079Z,97987.45
2018-11-06T07:30:15.352Z,97987.85
2018-11-06T07:32:43.207Z,97990.41
2018-11-06T07:35:11.325Z,97993.34
2018-11-06T07:37:39.786Z,97987.17
2018-11-06T07:40:09.058Z,97988.36
2018-11-06T07:42:37.589Z,97988.22
2018-11-06T07:45:07.174Z,97980.70
2018-11-06T07:47:35.129Z,97978.80
2018-11-06T07:50:02.666Z,97979.84
2018-11-06T07:52:30.683Z,97983.44
2018-11-06T07:54:58.085Z,97982.23
2018-11-06T07:57:25.730Z,97988.46
2018-11-06T07:59:54.066Z,97989.56
2018-11-06T08:02:21.532Z,97993.14
2018-11-06T08:04:48.898Z,97992.41
2018-11-06T08:07:16.215Z,97998.19
2018-11-06T08:09:43.772Z,97988.42
2018-11-06T08:12:11.811Z,98001.77
2018-11-06T08:14:39.878Z,98005.35
2018-11-06T08:17:07.766Z,97998.47
2018-11-06T08:19:35.172Z,97997.22
2018-11-06T08:22:02.656Z,97996.42
2018-11-06T08:24:31.086Z,97998.91
2018-11-06T08:27:00.132Z,97992.18
2018-11-06T08:29:31.913Z,97991.23
2018-11-06T08:32:04.557Z,97984.11
2018-11-06T08:34:37.632Z,97986.14
2018-11-06T08:37:19.378Z,97986.23
2018-11-06T08:39:59.105Z,97980.08
2018-11-06T08:42:40.567Z,97985.06
2018-11-06T08:45:22.760Z,97975.36
2018-11-06T08:48:05.352Z,97974.97
2018-11-06T08:50:46.619Z,97960.48
2018-11-06T08:53:28.742Z,97971.27
2018-11-06T08:56:09.593Z,97977.88
2018-11-06T08:58:51.115Z,97973.64
2018-11-06T09:01:19.141Z,97968.23
2018-11-06T09:03:47.078Z,97981.37
2018-11-06T09:06:15.485Z,97976.00
2018-11-06T09:08:43.904Z,97981.43
2018-11-06T09:11:26.820Z,97978.24
2018-11-06T09:14:08.573Z,97985.09
2018-11-06T09:16:49.771Z,97990.92
2018-11-06T09:19:30.489Z,97998.63
2018-11-06T09:21:57.838Z,97998.20
2018-11-06T09:24:25.271Z,98003.04
2018-11-06T09:26:53.417Z,98001.30
2018-11-06T09:29:20.860Z,98015.47
2018-11-06T09:31:48.419Z,98012.95
2018-11-06T09:34:15.880Z,98019.22
2018-11-06T09:36:43.528Z,98010.09
2018-11-06T09:39:11.668Z,98009.60
2018-11-06T09:41:39.335Z,98011.71
2018-11-06T09:44:07.200Z,98003.47
2018-11-06T09:46:35.071Z,98005.59
2018-11-06T09:49:02.857Z,97992.66
2018-11-06T09:51:30.395Z,97988.58
2018-11-06T09:53:58.686Z,97986.99
2018-11-06T09:56:26.465Z,97988.20
2018-11-06T09:58:54.118Z,97985.03
2018-11-06T10:01:21.565Z,97982.23
2018-11-06T10:03:50.038Z,97980.91
2018-11-06T10:06:17.907Z,97981.23
2018-11-06T10:08:46.031Z,97980.95
2018-11-06T10:11:13.990Z,97983.41
2018-11-06T10:13:43.134Z,97979.67
2018-11-06T10:16:13.352Z,97980.51
2018-11-06T10:18:41.435Z,97982.55
2018-11-06T10:21:09.449Z,97967.48
2018-11-06T10:23:37.014Z,97966.59
2018-11-06T10:26:04.905Z,97975.36
2018-11-06T10:28:32.861Z,97974.02
2018-11-06T10:31:00.581Z,97977.19
2018-11-06T10:33:28.728Z,97967.75
2018-11-06T10:35:56.606Z,97966.23
2018-11-06T10:38:24.436Z,97969.69
2018-11-06T10:40:52.602Z,97961.11
2018-11-06T10:43:20.374Z,97963.33
2018-11-06T10:45:47.918Z,97964.20
2018-11-06T10:48:15.569Z,97969.80
2018-11-06T10:50:44.289Z,97959.40
2018-11-06T10:53:12.709Z,97959.86
2018-11-06T10:55:41.751Z,97948.07
2018-11-06T10:58:09.713Z,97952.56
2018-11-06T11:00:43.634Z,97941.34
2018-11-06T11:03:27.041Z,97939.78
2018-11-06T11:06:08.090Z,97940.25
2018-11-06T11:08:35.631Z,97936.23
2018-11-06T11:11:05.053Z,97929.79
2018-11-06T11:13:33.899Z,97924.38
2018-11-06T11:16:04.541Z,97920.16
2018-11-06T11:18:32.115Z,97909.52
2018-11-06T11:21:02.376Z,97902.48
2018-11-06T11:23:30.134Z,97893.58
2018-11-06T11:25:57.929Z,97896.02
2018-11-06T11:28:25.823Z,97894.15
2018-11-06T11:30:54.029Z,97895.34
2018-11-06T11:33:21.494Z,97892.36
2018-11-06T11:35:51.685Z,97889.11
2018-11-06T11:38:19.079Z,97889.50
2018-11-06T11:40:47.125Z,97884.58
2018-11-06T11:43:29.886Z,97874.97
2018-11-06T11:46:10.869Z,97874.93
2018-11-06T11:48:39.995Z,97885.89
2018-11-06T11:51:08.657Z,97879.28
2018-11-06T11:53:36.412Z,97886.58
2018-11-06T11:56:05.296Z,97882.56
2018-11-06T11:58:34.393Z,97883.41
2018-11-06T12:01:02.713Z,97886.48
2018-11-06T12:03:30.750Z,97883.49
2018-11-06T12:05:59.020Z,97879.56
2018-11-06T12:08:31.464Z,97878.86
2018-11-06T12:11:02.876Z,97876.47
2018-11-06T12:13:45.450Z,97876.39
2018-11-06T12:16:26.566Z,97873.14
2018-11-06T12:19:08.202Z,97869.48
2018-11-06T12:21:36.138Z,97862.80
2018-11-06T12:24:04.176Z,97867.00
2018-11-06T12:26:31.803Z,97868.78
2018-11-06T12:28:59.751Z,97864.78
2018-11-06T12:31:27.203Z,97866.66
2018-11-06T12:34:09.040Z,97868.50
2018-11-06T12:36:50.446Z,97861.59
2018-11-06T12:39:18.131Z,97851.13
2018-11-06T12:41:45.808Z,97855.56
2018-11-06T12:44:13.754Z,97850.95
2018-11-06T12:46:43.801Z,97849.81
2018-11-06T12:49:12.113Z,97853.14
2018-11-06T12:51:41.495Z,97851.45
2018-11-06T12:54:09.523Z,97856.75
2018-11-06T12:56:37.267Z,97854.35
2018-11-06T12:59:07.744Z,97856.92
2018-11-06T13:01:35.358Z,97858.08
2018-11-06T13:04:03.520Z,97852.27
2018-11-06T13:06:31.511Z,97854.17
2018-11-06T13:09:00.160Z,97851.87
2018-11-06T13:11:28.762Z,97850.80
2018-11-06T13:13:56.452Z,97846.56
2018-11-06T13:16:24.030Z,97843.45
2018-11-06T13:18:51.469Z,97841.12
2018-11-06T13:21:18.868Z,97842.33
2018-11-06T13:23:46.151Z,97832.73
2018-11-06T13:26:14.899Z,97831.57
2018-11-06T13:28:42.739Z,97833.43
2018-11-06T13:31:10.249Z,97835.70
2018-11-06T13:33:41.101Z,97829.73
2018-11-06T13:36:08.695Z,97834.08
2018-11-06T13:38:36.350Z,97841.33
2018-11-06T13:41:04.209Z,97831.36
2018-11-06T13:43:32.804Z,97832.60
2018-11-06T13:46:01.673Z,97831.36
2018-11-06T13:48:31.784Z,97826.97
2018-11-06T13:50:59.325Z,97822.08
2018-11-06T13:53:30.994Z,97823.42
2018-11-06T13:56:00.109Z,97827.00
2018-11-06T13:58:32.361Z,97829.89
2018-11-06T14:01:00.860Z,97824.99
2018-11-06T14:03:29.630Z,97826.98
2018-11-06T14:06:01.739Z,97828.41
2018-11-06T14:08:34.840Z,97836.63
2018-11-06T14:11:07.959Z,97837.30
2018-11-06T14:13:40.435Z,97831.80
2018-11-06T14:16:11.337Z,97824.89
2018-11-06T14:19:05.421Z,97826.19
2018-11-06T14:21:40.347Z,97826.42
2018-11-06T14:24:21.719Z,97826.69
2018-11-06T14:26:52.655Z,97825.50
2018-11-06T14:29:20.170Z,97825.77
2018-11-06T14:31:47.832Z,97829.48
2018-11-06T14:34:15.233Z,97821.88
2018-11-06T14:36:42.915Z,97820.59
2018-11-06T14:39:10.244Z,97827.33
2018-11-06T14:41:37.823Z,97820.64
2018-11-06T14:44:05.111Z,97830.27
2018-11-06T14:46:32.481Z,97827.18
2018-11-06T14:48:59.956Z,97824.77
2018-11-06T14:51:27.276Z,97822.87
2018-11-06T14:53:54.578Z,97818.42
2018-11-06T14:56:21.841Z,97825.72
2018-11-06T14:58:49.134Z,97830.72
2018-11-06T15:01:16.425Z,97827.56
2018-11-06T15:03:43.769Z,97836.87
2018-11-06T15:06:11.107Z,97830.51
2018-11-06T15:08:38.421Z,97831.16
2018-11-06T15:11:05.711Z,97828.05
2018-11-06T15:13:36.624Z,97833.55
2018-11-06T15:16:03.966Z,97836.12
2018-11-06T15:18:31.264Z,97844.41
2018-11-06T15:20:58.710Z,97839.52
2018-11-06T15:23:25.867Z,97838.83
2018-11-06T15:25:53.237Z,97841.73
2018-11-06T15:28:20.555Z,97833.31
2018-11-06T15:30:47.824Z,97834.39
2018-11-06T15:33:15.094Z,97835.58
2018-11-06T15:35:42.350Z,97831.42
2018-11-06T15:38:09.608Z,97835.97
2018-11-06T15:40:36.906Z,97828.77
2018-11-06T15:43:04.214Z,97834.63
2018-11-06T15:45:31.515Z,97832.62
2018-11-06T15:47:58.868Z,97830.27
2018-11-06T15:50:26.198Z,97840.50
2018-11-06T15:52:53.502Z,97834.61
2018-11-06T15:55:20.784Z,97835.67
2018-11-06T15:57:48.079Z,97837.08
2018-11-06T16:00:17.627Z,97835.16
2018-11-06T16:02:45.598Z,97824.79
2018-11-06T16:05:13.184Z,97824.48
2018-11-06T16:07:40.733Z,97826.80
2018-11-06T16:10:10.258Z,97825.19
2018-11-06T16:12:52.150Z,97824.38
2018-11-06T16:15:33.411Z,97829.76
2018-11-06T16:18:01.464Z,97839.88
2018-11-06T16:20:28.970Z,97842.15
2018-11-06T16:22:56.249Z,97832.67
2018-11-06T16:25:23.612Z,97834.98
2018-11-06T16:27:50.891Z,97835.57
2018-11-06T16:30:19.598Z,97838.31
2018-11-06T16:32:46.881Z,97837.59
2018-11-06T16:35:16.352Z,97836.92
2018-11-06T16:37:44.079Z,97839.18
2018-11-06T16:40:11.895Z,97841.06
2018-11-06T16:42:39.918Z,97844.13
2018-11-06T16:45:09.079Z,97843.31
2018-11-06T16:47:36.314Z,97839.28
2018-11-06T16:50:11.420Z,97827.16
2018-11-06T16:52:38.703Z,97835.94
2018-11-06T16:55:06.667Z,97835.81
2018-11-06T16:57:33.900Z,97836.66
2018-11-06T17:00:01.300Z,97839.20
2018-11-06T17:02:28.532Z,97847.91
2018-11-06T17:04:55.761Z,97846.69
2018-11-06T17:07:23.107Z,97842.77
2018-11-06T17:09:50.318Z,97846.31
2018-11-06T17:12:17.539Z,97844.27
2018-11-06T17:14:44.776Z,97849.09
2018-11-06T17:17:12.080Z,97848.31
2018-11-06T17:19:39.315Z,97850.81
2018-11-06T17:22:06.780Z,97851.99
2018-11-06T17:24:34.033Z,97854.16
2018-11-06T17:27:02.381Z,97853.38
2018-11-06T17:29:29.602Z,97855.19
2018-11-06T17:31:56.859Z,97851.84
2018-11-06T17:34:24.091Z,97840.68
2018-11-06T17:36:51.312Z,97841.58
2018-11-06T17:39:18.613Z,97839.04
2018-11-06T17:41:45.954Z,97836.75
2018-11-06T17:44:13.163Z,97836.72
2018-11-06T17:46:40.522Z,97834.59
2018-11-06T17:49:07.722Z,97829.03
2018-11-06T17:51:34.981Z,97836.50
2018-11-06T17:54:02.216Z,97833.94
2018-11-06T17:56:29.475Z,97833.04
2018-11-06T17:58:56.724Z,97844.43
2018-11-06T18:01:24.109Z,97837.98
2018-11-06T18:03:51.370Z,97841.04
2018-11-06T18:06:18.624Z,97841.16
2018-11-06T18:08:45.856Z,97837.23
2018-11-06T18:11:13.204Z,97839.89
2018-11-06T18:13:40.582Z,97835.63
2018-11-06T18:16:07.807Z,97832.65
2018-11-06T18:18:35.138Z,97839.22
2018-11-06T18:21:02.419Z,97839.66
2018-11-06T18:23:29.690Z,97836.20
2018-11-06T18:25:57.000Z,97844.89
2018-11-06T18:28:24.225Z,97837.05
2018-11-06T18:30:51.451Z,97831.05
2018-11-06T18:33:18.699Z,97837.17
2018-11-06T18:35:45.906Z,97835.70
2018-11-06T18:38:13.174Z,97837.42
2018-11-06T18:40:40.538Z,97833.51
2018-11-06T18:43:07.892Z,97821.23
2018-11-06T18:45:35.143Z,97827.24
2018-11-06T18:48:02.472Z,97822.63
2018-11-06T18:50:29.732Z,97828.39
2018-11-06T18:52:57.003Z,97825.47
2018-11-06T18:55:24.271Z,97825.47
2018-11-06T18:57:51.565Z,97832.23
2018-11-06T19:00:20.217Z,97827.76
2018-11-06T19:02:48.776Z,97826.13
2018-11-06T19:05:16.463Z,97821.58
2018-11-06T19:07:43.881Z,97830.99
2018-11-06T19:10:12.787Z,97818.36
2018-11-06T19:12:40.269Z,97826.45
2018-11-06T19:15:10.177Z,97826.89
2018-11-06T19:17:38.219Z,97832.36
2018-11-06T19:20:05.916Z,97831.41
2018-11-06T19:22:33.510Z,97824.69
2018-11-06T19:25:08.159Z,97831.58
2018-11-06T19:27:35.651Z,97835.89
2018-11-06T19:30:03.738Z,97827.80
2018-11-06T19:32:32.919Z,97825.45
2018-11-06T19:35:00.234Z,97826.09
2018-11-06T19:37:27.621Z,97817.80
2018-11-06T19:39:54.970Z,97821.49
2018-11-06T19:42:22.292Z,97811.38
2018-11-06T19:44:49.582Z,97813.92
2018-11-06T19:47:17.799Z,97812.83
2018-11-06T19:49:45.018Z,97816.16
2018-11-06T19:52:12.291Z,97812.34
2018-11-06T19:54:39.566Z,97819.35
2018-11-06T19:57:06.893Z,97814.86
2018-11-06T19:59:34.198Z,97816.27
2018-11-06T20:02:01.596Z,97821.23
2018-11-06T20:04:28.999Z,97819.02
2018-11-06T20:06:57.275Z,97822.64
2018-11-06T20:09:24.661Z,97817.83
2018-11-06T20:11:52.087Z,97823.31
2018-11-06T20:14:19.453Z,97824.69
2018-11-06T20:16:46.793Z,97824.23
2018-11-06T20:19:14.145Z,97827.20
2018-11-06T20:21:41.526Z,97819.89
2018-11-06T20:24:08.949Z,97822.63
2018-11-06T20:26:36.548Z,97823.52
2018-11-06T20:29:04.507Z,97819.87
2018-11-06T20:31:31.826Z,97811.98
2018-11-06T20:33:59.362Z,97813.92
2018-11-06T20:36:26.694Z,97816.09
2018-11-06T20:38:54.101Z,97810.62
2018-11-06T20:41:21.616Z,97812.50
2018-11-06T20:43:49.115Z,97810.95
2018-11-06T20:46:16.445Z,97809.70
2018-11-06T20:48:43.931Z,97813.92
2018-11-06T20:51:11.942Z,97813.20
2018-11-06T20:53:39.457Z,97818.13
2018-11-06T20:56:06.867Z,97816.62
2018-11-06T20:58:34.498Z,97820.55
2018-11-06T21:01:02.747Z,97825.19
2018-11-06T21:03:30.130Z,97825.94
2018-11-06T21:05:57.652Z,97836.92
2018-11-06T21:08:24.862Z,97831.94
2018-11-06T21:10:53.068Z,97828.42
2018-11-06T21:13:20.633Z,97827.95
2018-11-06T21:15:48.968Z,97834.11
2018-11-06T21:18:18.392Z,97837.48
2018-11-06T21:20:45.773Z,97833.41
2018-11-06T21:23:13.917Z,97825.77
2018-11-06T21:25:41.777Z,97831.01
2018-11-06T21:28:08.904Z,97831.48
2018-11-06T21:30:36.545Z,97830.52
2018-11-06T21:33:03.861Z,97831.49
2018-11-06T21:35:31.209Z,97835.81
2018-11-06T21:37:58.578Z,97847.61
2018-11-06T21:40:26.788Z,97852.97
2018-11-06T21:42:54.658Z,97849.15
2018-11-06T21:45:21.945Z,97863.53
2018-11-06T21:47:49.864Z,97869.55
2018-11-06T21:50:17.575Z,97863.84
2018-11-06T21:52:45.019Z,97865.26
2018-11-06T21:55:13.485Z,97867.40
2018-11-06T21:57:41.469Z,97871.09
2018-11-06T22:00:11.318Z,97876.09
2018-11-06T22:02:38.656Z,97882.34
2018-11-06T22:05:07.178Z,97872.48
2018-11-06T22:07:34.518Z,97881.28
2018-11-06T22:10:01.820Z,97879.66
2018-11-06T22:12:29.111Z,97875.81
2018-11-06T22:14:56.383Z,97882.78
2018-11-06T22:17:23.607Z,97885.88
2018-11-06T22:19:51.059Z,97891.26
2018-11-06T22:22:19.248Z,97896.60
2018-11-06T22:24:46.806Z,97903.92
2018-11-06T22:27:14.051Z,97896.55
2018-11-06T22:29:41.349Z,97896.92
2018-11-06T22:32:08.657Z,97901.67
2018-11-06T22:34:36.041Z,97903.42
2018-11-06T22:37:03.325Z,97903.03
2018-11-06T22:39:30.575Z,97899.24
2018-11-06T22:41:57.880Z,97899.39
2018-11-06T22:44:25.170Z,97902.51
2018-11-06T22:46:52.415Z,97898.09
2018-11-06T22:49:19.800Z,97897.35
2018-11-06T22:51:47.039Z,97902.24
2018-11-06T22:54:14.404Z,97902.24
2018-11-06T22:56:41.727Z,97898.66
2018-11-06T22:59:09.063Z,97904.20
2018-11-06T23:01:36.337Z,97904.87
2018-11-06T23:04:03.582Z,97910.96
2018-11-06T23:06:30.864Z,97907.04
2018-11-06T23:08:58.045Z,97900.61
2018-11-06T23:11:25.257Z,97894.20
2018-11-06T23:13:52.463Z,97891.69
2018-11-06T23:16:19.713Z,97895.39
2018-11-06T23:18:46.936Z,97898.50
2018-11-06T23:21:14.211Z,97889.42
2018-11-06T23:23:41.474Z,97892.13
2018-11-06T23:26:08.707Z,97890.97
2018-11-06T23:28:35.948Z,97892.46
2018-11-06T23:31:03.190Z,97901.34
2018-11-06T23:33:30.398Z,97899.74
2018-11-06T23:35:57.607Z,97911.08
2018-11-06T23:38:24.829Z,97912.28
2018-11-06T23:40:52.122Z,97910.02
2018-11-06T23:43:19.354Z,97919.78
2018-11-06T23:45:46.615Z,97919.60
2018-11-06T23:48:13.827Z,97917.36
2018-11-06T23:50:41.095Z,97919.36
2018-11-06T23:53:08.334Z,97923.70
2018-11-06T23:55:35.591Z,97929.75
2018-11-06T23:58:02.835Z,97932.74
